sensor_id;sensor_type;location;lat;lon;timestamp;pressure;altitude;pressure_sealevel;temperature;humidity
70072;BME280;57434;42.794;23.302;2023-03-01T00:01:02;96177.44;;;5.11;82.42
70072;BME280;57434;42.794;23.302;2023-03-01T00:02:04;96120.66;;;4.70;82.54
70072;BME280;57434;42.794;23.302;2023-03-01T00:03:06;96183.69;;;5.15;82.12
70072;BME280;57434;42.794;23.302;2023-03-01T00:04:08;96145.28;;;4.97;82.21
70072;BME280;57434;42.794;23.302;2023-03-01T00:05:10;96171.00;;;5.01;82.33
70072;BME280;57434;42.794;23.302;2023-03-01T00:06:13;96156.66;;;5.16;82.35
70072;BME280;57434;42.794;23.302;2023-03-01T00:07:15;96152.41;;;5.11;82.35
70072;BME280;57434;42.794;23.302;2023-03-01T00:08:17;96162.31;;;5.25;82.32
70072;BME280;57434;42.794;23.302;2023-03-01T00:09:19;96152.53;;;5.20;82.20
70072;BME280;57434;42.794;23.302;2023-03-01T00:10:20;96032.59;;;4.42;82.04
70072;BME280;57434;42.794;23.302;2023-03-01T00:11:27;96163.31;;;5.31;81.73
70072;BME280;57434;42.794;23.302;2023-03-01T00:12:29;96160.78;;;5.24;82.03
70072;BME280;57434;42.794;23.302;2023-03-01T00:13:34;96130.16;;;4.98;81.94
70072;BME280;57434;42.794;23.302;2023-03-01T00:14:36;96164.09;;;5.19;82.31
70072;BME280;57434;42.794;23.302;2023-03-01T00:15:39;96163.00;;;5.16;82.82
70072;BME280;57434;42.794;23.302;2023-03-01T00:16:42;95971.72;;;3.93;82.44
70072;BME280;57434;42.794;23.302;2023-03-01T00:17:44;96134.94;;;4.98;82.71
70072;BME280;57434;42.794;23.302;2023-03-01T00:18:46;96044.25;;;4.37;83.13
70072;BME280;57434;42.794;23.302;2023-03-01T00:19:48;96131.16;;;4.92;83.27
70072;BME280;57434;42.794;23.302;2023-03-01T00:20:51;96160.06;;;5.07;83.30
70072;BME280;57434;42.794;23.302;2023-03-01T00:21:53;96156.41;;;5.10;83.58
70072;BME280;57434;42.794;23.302;2023-03-01T00:22:55;96165.00;;;5.16;83.62
70072;BME280;57434;42.794;23.302;2023-03-01T00:23:57;96165.31;;;5.18;83.32
70072;BME280;57434;42.794;23.302;2023-03-01T00:24:59;96102.75;;;4.84;82.99
70072;BME280;57434;42.794;23.302;2023-03-01T00:26:01;96162.66;;;5.27;82.30
70072;BME280;57434;42.794;23.302;2023-03-01T00:27:03;96167.00;;;5.28;82.08
70072;BME280;57434;42.794;23.302;2023-03-01T00:28:04;96160.22;;;5.29;81.74
70072;BME280;57434;42.794;23.302;2023-03-01T00:29:06;96181.81;;;5.25;81.60
70072;BME280;57434;42.794;23.302;2023-03-01T00:30:09;96123.59;;;5.05;81.92
70072;BME280;57434;42.794;23.302;2023-03-01T00:31:16;96143.63;;;5.25;81.87
70072;BME280;57434;42.794;23.302;2023-03-01T00:32:19;96119.81;;;5.11;81.61
70072;BME280;57434;42.794;23.302;2023-03-01T00:33:21;96174.44;;;5.18;81.54
70072;BME280;57434;42.794;23.302;2023-03-01T00:34:23;96105.78;;;4.90;81.98
70072;BME280;57434;42.794;23.302;2023-03-01T00:35:24;96026.69;;;4.40;82.04
70072;BME280;57434;42.794;23.302;2023-03-01T00:36:34;96115.81;;;5.00;82.29
70072;BME280;57434;42.794;23.302;2023-03-01T00:37:36;96140.63;;;5.20;82.41
70072;BME280;57434;42.794;23.302;2023-03-01T00:38:39;96118.16;;;5.01;82.09
70072;BME280;57434;42.794;23.302;2023-03-01T00:39:41;96135.84;;;5.20;82.12
70072;BME280;57434;42.794;23.302;2023-03-01T00:40:43;96134.28;;;5.19;81.97
70072;BME280;57434;42.794;23.302;2023-03-01T00:41:45;96108.34;;;5.09;81.87
70072;BME280;57434;42.794;23.302;2023-03-01T00:42:46;96120.59;;;5.12;82.01
70072;BME280;57434;42.794;23.302;2023-03-01T00:43:49;95997.03;;;4.37;81.52
70072;BME280;57434;42.794;23.302;2023-03-01T00:44:51;96128.72;;;5.19;81.17
70072;BME280;57434;42.794;23.302;2023-03-01T00:45:53;96111.56;;;5.08;81.33
70072;BME280;57434;42.794;23.302;2023-03-01T00:46:55;96111.94;;;4.97;81.50
70072;BME280;57434;42.794;23.302;2023-03-01T00:47:57;96128.50;;;5.14;81.33
70072;BME280;57434;42.794;23.302;2023-03-01T00:48:59;96135.28;;;5.13;81.61
70072;BME280;57434;42.794;23.302;2023-03-01T00:50:01;95964.06;;;3.97;81.82
70072;BME280;57434;42.794;23.302;2023-03-01T00:51:08;96097.75;;;4.79;82.13
70072;BME280;57434;42.794;23.302;2023-03-01T00:52:10;96152.19;;;5.05;82.43
70072;BME280;57434;42.794;23.302;2023-03-01T00:53:12;95965.28;;;3.96;82.40
70072;BME280;57434;42.794;23.302;2023-03-01T00:54:13;96089.41;;;4.79;82.33
70072;BME280;57434;42.794;23.302;2023-03-01T00:55:15;96128.72;;;5.06;82.47
70072;BME280;57434;42.794;23.302;2023-03-01T00:56:17;96116.03;;;4.93;82.52
70072;BME280;57434;42.794;23.302;2023-03-01T00:57:19;96124.81;;;4.91;82.48
70072;BME280;57434;42.794;23.302;2023-03-01T00:58:21;96120.38;;;4.94;82.36
70072;BME280;57434;42.794;23.302;2023-03-01T00:59:23;96131.28;;;5.14;82.13
70072;BME280;57434;42.794;23.302;2023-03-01T01:00:25;96128.72;;;4.94;81.60
70072;BME280;57434;42.794;23.302;2023-03-01T01:01:29;95990.56;;;4.15;81.47
70072;BME280;57434;42.794;23.302;2023-03-01T01:02:33;95983.66;;;4.06;80.99
70072;BME280;57434;42.794;23.302;2023-03-01T01:03:36;96125.84;;;4.97;81.41
70072;BME280;57434;42.794;23.302;2023-03-01T01:04:38;96135.84;;;4.95;81.25
70072;BME280;57434;42.794;23.302;2023-03-01T01:05:40;96097.41;;;4.64;81.69
70072;BME280;57434;42.794;23.302;2023-03-01T01:06:46;96129.97;;;4.76;81.96
70072;BME280;57434;42.794;23.302;2023-03-01T01:07:48;96073.59;;;4.51;82.48
70072;BME280;57434;42.794;23.302;2023-03-01T01:08:51;96135.16;;;4.91;82.10
70072;BME280;57434;42.794;23.302;2023-03-01T01:09:54;96016.44;;;4.12;82.01
70072;BME280;57434;42.794;23.302;2023-03-01T01:10:56;96122.31;;;4.81;82.43
70072;BME280;57434;42.794;23.302;2023-03-01T01:11:58;96141.41;;;4.95;82.47
70072;BME280;57434;42.794;23.302;2023-03-01T01:13:00;96138.38;;;5.02;82.27
70072;BME280;57434;42.794;23.302;2023-03-01T01:14:02;96159.03;;;4.88;82.30
70072;BME280;57434;42.794;23.302;2023-03-01T01:15:05;95944.59;;;3.72;82.37
70072;BME280;57434;42.794;23.302;2023-03-01T01:16:07;96103.19;;;4.70;82.23
70072;BME280;57434;42.794;23.302;2023-03-01T01:17:09;96132.13;;;4.85;82.34
70072;BME280;57434;42.794;23.302;2023-03-01T01:18:11;96129.25;;;4.89;82.42
70072;BME280;57434;42.794;23.302;2023-03-01T01:19:14;96142.72;;;5.03;82.00
70072;BME280;57434;42.794;23.302;2023-03-01T01:20:17;96148.06;;;5.10;81.55
70072;BME280;57434;42.794;23.302;2023-03-01T01:21:21;96144.72;;;5.02;81.55
70072;BME280;57434;42.794;23.302;2023-03-01T01:22:23;96120.56;;;4.87;81.51
70072;BME280;57434;42.794;23.302;2023-03-01T01:23:25;96149.97;;;5.13;81.40
70072;BME280;57434;42.794;23.302;2023-03-01T01:24:27;96152.75;;;5.13;81.40
70072;BME280;57434;42.794;23.302;2023-03-01T01:25:29;96058.47;;;4.52;81.26
70072;BME280;57434;42.794;23.302;2023-03-01T01:26:32;96146.50;;;5.09;81.30
70072;BME280;57434;42.794;23.302;2023-03-01T01:27:36;96140.63;;;5.07;81.13
70072;BME280;57434;42.794;23.302;2023-03-01T01:28:38;96071.38;;;4.58;80.99
70072;BME280;57434;42.794;23.302;2023-03-01T01:29:40;96144.75;;;5.15;80.85
70072;BME280;57434;42.794;23.302;2023-03-01T01:30:42;96163.41;;;5.02;81.10
70072;BME280;57434;42.794;23.302;2023-03-01T01:31:44;96137.50;;;5.05;81.21
70072;BME280;57434;42.794;23.302;2023-03-01T01:32:46;96156.41;;;5.10;81.55
70072;BME280;57434;42.794;23.302;2023-03-01T01:33:47;96167.38;;;4.88;81.94
70072;BME280;57434;42.794;23.302;2023-03-01T01:34:49;96141.50;;;4.91;81.96
70072;BME280;57434;42.794;23.302;2023-03-01T01:35:51;96021.66;;;4.09;81.79
70072;BME280;57434;42.794;23.302;2023-03-01T01:36:53;96123.00;;;4.85;82.06
70072;BME280;57434;42.794;23.302;2023-03-01T01:37:55;96150.63;;;5.04;82.24
70072;BME280;57434;42.794;23.302;2023-03-01T01:38:57;96111.31;;;4.77;82.16
70072;BME280;57434;42.794;23.302;2023-03-01T01:40:00;96120.66;;;4.83;82.13
70072;BME280;57434;42.794;23.302;2023-03-01T01:41:02;95993.63;;;4.04;82.30
70072;BME280;57434;42.794;23.302;2023-03-01T01:42:05;96188.91;;;5.00;82.38
70072;BME280;57434;42.794;23.302;2023-03-01T01:43:17;96146.28;;;4.91;82.30
70072;BME280;57434;42.794;23.302;2023-03-01T01:44:25;96157.19;;;4.98;82.71
70072;BME280;57434;42.794;23.302;2023-03-01T01:45:35;96150.63;;;4.92;82.32
70072;BME280;57434;42.794;23.302;2023-03-01T01:46:40;96142.63;;;4.94;82.38
70072;BME280;57434;42.794;23.302;2023-03-01T01:47:42;96150.53;;;4.95;82.42
70072;BME280;57434;42.794;23.302;2023-03-01T01:48:47;95951.47;;;3.38;82.26
70072;BME280;57434;42.794;23.302;2023-03-01T01:49:54;96151.50;;;4.89;82.47
70072;BME280;57434;42.794;23.302;2023-03-01T01:50:59;96085.38;;;4.55;82.13
70072;BME280;57434;42.794;23.302;2023-03-01T01:52:16;96145.19;;;5.01;82.39
70072;BME280;57434;42.794;23.302;2023-03-01T01:53:19;96146.72;;;5.02;82.07
70072;BME280;57434;42.794;23.302;2023-03-01T01:54:28;96155.84;;;5.02;82.02
70072;BME280;57434;42.794;23.302;2023-03-01T01:55:31;96141.41;;;4.95;82.29
70072;BME280;57434;42.794;23.302;2023-03-01T01:56:32;96145.06;;;4.92;82.21
70072;BME280;57434;42.794;23.302;2023-03-01T01:57:46;96146.63;;;4.93;82.60
70072;BME280;57434;42.794;23.302;2023-03-01T01:58:49;96025.22;;;4.23;82.40
70072;BME280;57434;42.794;23.302;2023-03-01T01:59:56;96140.50;;;4.98;82.06
70072;BME280;57434;42.794;23.302;2023-03-01T02:01:01;96177.00;;;5.00;81.85
70072;BME280;57434;42.794;23.302;2023-03-01T02:02:04;96179.00;;;5.12;81.42
70072;BME280;57434;42.794;23.302;2023-03-01T02:03:11;96137.28;;;4.99;81.42
70072;BME280;57434;42.794;23.302;2023-03-01T02:04:14;96154.31;;;5.14;80.79
70072;BME280;57434;42.794;23.302;2023-03-01T02:06:41;96145.72;;;5.08;80.73
70072;BME280;57434;42.794;23.302;2023-03-01T02:07:46;96150.84;;;5.10;80.57
70072;BME280;57434;42.794;23.302;2023-03-01T02:08:51;96151.97;;;5.00;81.32
70072;BME280;57434;42.794;23.302;2023-03-01T02:09:54;96077.72;;;4.46;81.48
70072;BME280;57434;42.794;23.302;2023-03-01T02:10:58;96059.00;;;4.34;81.52
70072;BME280;57434;42.794;23.302;2023-03-01T02:12:02;96149.28;;;4.96;81.45
70072;BME280;57434;42.794;23.302;2023-03-01T02:13:05;96133.97;;;4.75;81.33
70072;BME280;57434;42.794;23.302;2023-03-01T02:14:06;96143.16;;;4.89;81.53
70072;BME280;57434;42.794;23.302;2023-03-01T02:15:09;96120.44;;;4.77;81.78
70072;BME280;57434;42.794;23.302;2023-03-01T02:16:13;96123.34;;;4.87;81.60
70072;BME280;57434;42.794;23.302;2023-03-01T02:17:17;96128.72;;;4.94;81.27
70072;BME280;57434;42.794;23.302;2023-03-01T02:18:21;96128.16;;;4.99;81.10
70072;BME280;57434;42.794;23.302;2023-03-01T02:22:25;96125.16;;;4.93;81.47
70072;BME280;57434;42.794;23.302;2023-03-01T02:23:29;96129.38;;;4.98;80.89
70072;BME280;57434;42.794;23.302;2023-03-01T02:24:45;96104.66;;;4.87;81.04
70072;BME280;57434;42.794;23.302;2023-03-01T02:27:23;96108.53;;;4.77;80.53
70072;BME280;57434;42.794;23.302;2023-03-01T02:28:32;96147.97;;;5.01;80.75
70072;BME280;57434;42.794;23.302;2023-03-01T02:29:35;96098.97;;;4.78;80.59
70072;BME280;57434;42.794;23.302;2023-03-01T02:30:37;96112.72;;;4.98;80.49
70072;BME280;57434;42.794;23.302;2023-03-01T02:31:39;96118.91;;;5.02;80.54
70072;BME280;57434;42.794;23.302;2023-03-01T02:32:41;96112.38;;;4.96;80.41
70072;BME280;57434;42.794;23.302;2023-03-01T02:33:44;96118.22;;;4.85;80.24
70072;BME280;57434;42.794;23.302;2023-03-01T02:36:34;96010.19;;;4.07;80.33
70072;BME280;57434;42.794;23.302;2023-03-01T02:37:38;96109.66;;;4.79;80.33
70072;BME280;57434;42.794;23.302;2023-03-01T02:38:41;96126.56;;;4.85;80.02
70072;BME280;57434;42.794;23.302;2023-03-01T02:39:48;96117.09;;;4.83;80.07
70072;BME280;57434;42.794;23.302;2023-03-01T02:40:51;96106.75;;;4.70;80.32
70072;BME280;57434;42.794;23.302;2023-03-01T02:41:54;96121.19;;;4.78;80.39
70072;BME280;57434;42.794;23.302;2023-03-01T02:42:58;96090.94;;;4.55;80.38
70072;BME280;57434;42.794;23.302;2023-03-01T02:44:01;96071.25;;;4.49;80.42
70072;BME280;57434;42.794;23.302;2023-03-01T02:45:03;96109.97;;;4.69;80.18
70072;BME280;57434;42.794;23.302;2023-03-01T02:46:15;96126.47;;;4.89;80.07
70072;BME280;57434;42.794;23.302;2023-03-01T02:47:17;96115.31;;;4.76;79.94
70072;BME280;57434;42.794;23.302;2023-03-01T02:48:20;96124.22;;;4.84;79.78
70072;BME280;57434;42.794;23.302;2023-03-01T02:49:30;96121.66;;;4.76;80.18
70072;BME280;57434;42.794;23.302;2023-03-01T02:50:57;96105.06;;;4.60;80.13
70072;BME280;57434;42.794;23.302;2023-03-01T02:52:37;96091.31;;;4.69;80.02
70072;BME280;57434;42.794;23.302;2023-03-01T02:55:09;96020.22;;;4.18;79.79
70072;BME280;57434;42.794;23.302;2023-03-01T02:56:13;96117.78;;;4.87;79.44
70072;BME280;57434;42.794;23.302;2023-03-01T02:57:15;96108.31;;;4.71;79.39
70072;BME280;57434;42.794;23.302;2023-03-01T02:58:17;96120.22;;;4.72;79.80
70072;BME280;57434;42.794;23.302;2023-03-01T02:59:22;96132.38;;;4.49;80.04
70072;BME280;57434;42.794;23.302;2023-03-01T03:00:28;96096.72;;;4.60;79.82
70072;BME280;57434;42.794;23.302;2023-03-01T03:01:32;96128.91;;;4.74;80.03
70072;BME280;57434;42.794;23.302;2023-03-01T03:02:34;96071.81;;;4.44;80.08
70072;BME280;57434;42.794;23.302;2023-03-01T03:03:37;96092.72;;;4.61;79.83
70072;BME280;57434;42.794;23.302;2023-03-01T03:04:38;96113.44;;;4.73;79.73
70072;BME280;57434;42.794;23.302;2023-03-01T03:05:40;95885.00;;;3.22;79.55
70072;BME280;57434;42.794;23.302;2023-03-01T03:06:46;96119.00;;;4.73;79.75
70072;BME280;57434;42.794;23.302;2023-03-01T03:07:49;96018.53;;;4.07;79.91
70072;BME280;57434;42.794;23.302;2023-03-01T03:08:51;96121.31;;;4.74;80.20
70072;BME280;57434;42.794;23.302;2023-03-01T03:09:54;96092.06;;;4.57;80.43
70072;BME280;57434;42.794;23.302;2023-03-01T03:10:55;96119.19;;;4.66;80.45
70072;BME280;57434;42.794;23.302;2023-03-01T03:11:58;96121.44;;;4.71;80.37
70072;BME280;57434;42.794;23.302;2023-03-01T03:13:02;96121.66;;;4.76;80.26
70072;BME280;57434;42.794;23.302;2023-03-01T03:14:05;95972.00;;;3.70;79.79
70072;BME280;57434;42.794;23.302;2023-03-01T03:15:09;96123.44;;;4.70;79.92
70072;BME280;57434;42.794;23.302;2023-03-01T03:16:11;96116.16;;;4.48;79.94
70072;BME280;57434;42.794;23.302;2023-03-01T03:17:12;96125.19;;;4.77;80.21
70072;BME280;57434;42.794;23.302;2023-03-01T03:18:16;96113.44;;;4.73;80.18
70072;BME280;57434;42.794;23.302;2023-03-01T03:19:19;96133.22;;;4.75;80.50
70072;BME280;57434;42.794;23.302;2023-03-01T03:20:23;96059.00;;;4.34;80.30
70072;BME280;57434;42.794;23.302;2023-03-01T03:21:25;96117.31;;;4.63;80.13
70072;BME280;57434;42.794;23.302;2023-03-01T03:22:27;96128.56;;;4.72;80.26
70072;BME280;57434;42.794;23.302;2023-03-01T03:23:28;96114.81;;;4.52;80.43
70072;BME280;57434;42.794;23.302;2023-03-01T03:24:30;96130.09;;;4.60;81.00
70072;BME280;57434;42.794;23.302;2023-03-01T03:25:32;96113.94;;;4.42;81.84
70072;BME280;57434;42.794;23.302;2023-03-01T03:26:34;96114.81;;;4.39;81.84
70072;BME280;57434;42.794;23.302;2023-03-01T03:27:37;96083.97;;;4.21;81.58
70072;BME280;57434;42.794;23.302;2023-03-01T03:28:39;96133.75;;;4.57;81.77
70072;BME280;57434;42.794;23.302;2023-03-01T03:29:41;96107.94;;;4.44;81.27
70072;BME280;57434;42.794;23.302;2023-03-01T03:30:43;96127.75;;;4.59;80.88
70072;BME280;57434;42.794;23.302;2023-03-01T03:31:45;96119.50;;;4.55;80.79
70072;BME280;57434;42.794;23.302;2023-03-01T03:32:47;96143.88;;;4.76;81.04
70072;BME280;57434;42.794;23.302;2023-03-01T03:33:49;96038.97;;;4.14;80.76
70072;BME280;57434;42.794;23.302;2023-03-01T03:34:51;96124.75;;;4.78;80.56
70072;BME280;57434;42.794;23.302;2023-03-01T03:35:52;96134.91;;;4.72;80.88
70072;BME280;57434;42.794;23.302;2023-03-01T03:36:55;96114.72;;;4.56;80.59
70072;BME280;57434;42.794;23.302;2023-03-01T03:38:00;96136.56;;;4.70;80.29
70072;BME280;57434;42.794;23.302;2023-03-01T03:39:02;96142.00;;;4.73;80.49
70072;BME280;57434;42.794;23.302;2023-03-01T03:40:04;96139.53;;;4.75;80.39
70072;BME280;57434;42.794;23.302;2023-03-01T03:41:07;96142.56;;;4.68;80.40
70072;BME280;57434;42.794;23.302;2023-03-01T03:42:09;96130.41;;;4.62;80.38
70072;BME280;57434;42.794;23.302;2023-03-01T03:43:16;96072.75;;;4.25;80.46
70072;BME280;57434;42.794;23.302;2023-03-01T03:45:40;96145.56;;;4.87;80.08
70072;BME280;57434;42.794;23.302;2023-03-01T03:48:04;96140.00;;;4.87;79.35
70072;BME280;57434;42.794;23.302;2023-03-01T03:49:06;96129.63;;;4.62;79.40
70072;BME280;57434;42.794;23.302;2023-03-01T03:50:13;96155.13;;;4.86;79.15
70072;BME280;57434;42.794;23.302;2023-03-01T03:51:17;96145.44;;;4.77;79.35
70072;BME280;57434;42.794;23.302;2023-03-01T03:52:19;96143.78;;;4.67;79.76
70072;BME280;57434;42.794;23.302;2023-03-01T03:53:23;96042.50;;;4.01;79.62
70072;BME280;57434;42.794;23.302;2023-03-01T03:54:25;96141.53;;;4.62;80.21
70072;BME280;57434;42.794;23.302;2023-03-01T03:55:27;96139.41;;;4.54;79.90
70072;BME280;57434;42.794;23.302;2023-03-01T03:56:47;96155.38;;;4.50;80.64
70072;BME280;57434;42.794;23.302;2023-03-01T03:57:49;96158.28;;;4.46;80.88
70072;BME280;57434;42.794;23.302;2023-03-01T03:58:54;96128.75;;;4.23;80.98
70072;BME280;57434;42.794;23.302;2023-03-01T04:01:52;96136.28;;;4.23;80.84
70072;BME280;57434;42.794;23.302;2023-03-01T04:02:54;96162.81;;;4.40;81.04
70072;BME280;57434;42.794;23.302;2023-03-01T04:03:56;96157.81;;;4.48;80.80
70072;BME280;57434;42.794;23.302;2023-03-01T04:04:58;96150.72;;;4.47;80.82
70072;BME280;57434;42.794;23.302;2023-03-01T04:06:00;96096.59;;;4.09;80.99
70072;BME280;57434;42.794;23.302;2023-03-01T04:07:02;96155.03;;;4.48;80.92
70072;BME280;57434;42.794;23.302;2023-03-01T04:08:05;95990.13;;;3.46;80.62
70072;BME280;57434;42.794;23.302;2023-03-01T04:09:06;96181.84;;;4.54;80.48
70072;BME280;57434;42.794;23.302;2023-03-01T04:10:14;96159.28;;;4.52;80.51
70072;BME280;57434;42.794;23.302;2023-03-01T04:11:16;96154.59;;;4.49;80.17
70072;BME280;57434;42.794;23.302;2023-03-01T04:12:18;96148.72;;;4.47;80.26
70072;BME280;57434;42.794;23.302;2023-03-01T04:13:21;96152.06;;;4.55;80.23
70072;BME280;57434;42.794;23.302;2023-03-01T04:14:24;96145.63;;;4.58;79.77
70072;BME280;57434;42.794;23.302;2023-03-01T04:15:26;96184.44;;;4.61;80.11
70072;BME280;57434;42.794;23.302;2023-03-01T04:16:28;96173.50;;;4.54;80.62
70072;BME280;57434;42.794;23.302;2023-03-01T04:17:30;96161.63;;;4.54;80.77
70072;BME280;57434;42.794;23.302;2023-03-01T04:18:32;96163.88;;;4.59;81.04
70072;BME280;57434;42.794;23.302;2023-03-01T04:19:34;96160.84;;;4.53;80.78
70072;BME280;57434;42.794;23.302;2023-03-01T04:20:36;96127.00;;;4.29;81.21
70072;BME280;57434;42.794;23.302;2023-03-01T04:21:38;96164.47;;;4.37;80.87
70072;BME280;57434;42.794;23.302;2023-03-01T04:22:40;96134.00;;;4.34;80.89
70072;BME280;57434;42.794;23.302;2023-03-01T04:23:42;96154.59;;;4.49;80.86
70072;BME280;57434;42.794;23.302;2023-03-01T04:24:44;96162.94;;;4.49;80.78
70072;BME280;57434;42.794;23.302;2023-03-01T04:25:49;95973.38;;;3.20;80.75
70072;BME280;57434;42.794;23.302;2023-03-01T04:26:51;96137.66;;;4.31;80.52
70072;BME280;57434;42.794;23.302;2023-03-01T04:27:53;96103.63;;;4.14;80.27
70072;BME280;57434;42.794;23.302;2023-03-01T04:28:55;96154.59;;;4.49;80.18
70072;BME280;57434;42.794;23.302;2023-03-01T04:29:56;96146.50;;;4.55;79.79
70072;BME280;57434;42.794;23.302;2023-03-01T04:31:08;96012.13;;;3.53;80.04
70072;BME280;57434;42.794;23.302;2023-03-01T04:32:10;96130.00;;;4.35;80.29
70072;BME280;57434;42.794;23.302;2023-03-01T04:33:12;96171.84;;;4.44;80.42
70072;BME280;57434;42.794;23.302;2023-03-01T04:34:14;96147.97;;;4.47;80.40
70072;BME280;57434;42.794;23.302;2023-03-01T04:35:16;96139.03;;;4.39;80.49
70072;BME280;57434;42.794;23.302;2023-03-01T04:36:19;96024.94;;;3.63;80.63
70072;BME280;57434;42.794;23.302;2023-03-01T04:37:21;96119.28;;;4.21;80.84
70072;BME280;57434;42.794;23.302;2023-03-01T04:38:23;96121.34;;;4.04;80.89
70072;BME280;57434;42.794;23.302;2023-03-01T04:39:25;96054.88;;;3.84;81.04
70072;BME280;57434;42.794;23.302;2023-03-01T04:40:27;96144.41;;;4.46;80.87
70072;BME280;57434;42.794;23.302;2023-03-01T04:41:29;96140.28;;;4.22;80.52
70072;BME280;57434;42.794;23.302;2023-03-01T04:42:30;95979.78;;;3.33;80.47
70072;BME280;57434;42.794;23.302;2023-03-01T04:43:32;96151.81;;;4.49;80.36
70072;BME280;57434;42.794;23.302;2023-03-01T04:44:34;96153.50;;;4.47;80.29
70072;BME280;57434;42.794;23.302;2023-03-01T04:45:36;96149.03;;;4.49;80.16
70072;BME280;57434;42.794;23.302;2023-03-01T04:46:38;96130.78;;;4.35;80.31
70072;BME280;57434;42.794;23.302;2023-03-01T04:47:42;96141.47;;;4.37;80.71
70072;BME280;57434;42.794;23.302;2023-03-01T04:48:45;96135.66;;;4.31;80.86
70072;BME280;57434;42.794;23.302;2023-03-01T04:49:47;96084.63;;;4.13;81.23
70072;BME280;57434;42.794;23.302;2023-03-01T04:50:49;96123.00;;;4.30;81.20
70072;BME280;57434;42.794;23.302;2023-03-01T04:51:50;96065.78;;;3.91;81.26
70072;BME280;57434;42.794;23.302;2023-03-01T04:52:52;96124.25;;;4.42;81.27
70072;BME280;57434;42.794;23.302;2023-03-01T04:53:54;96113.19;;;4.26;81.47
70072;BME280;57434;42.794;23.302;2023-03-01T04:54:55;96130.00;;;4.35;81.24
70072;BME280;57434;42.794;23.302;2023-03-01T04:55:58;96126.38;;;4.38;81.42
70072;BME280;57434;42.794;23.302;2023-03-01T04:57:01;96046.81;;;3.90;81.30
70072;BME280;57434;42.794;23.302;2023-03-01T04:58:02;96139.03;;;4.39;81.30
70072;BME280;57434;42.794;23.302;2023-03-01T04:59:05;96131.13;;;4.37;81.54
70072;BME280;57434;42.794;23.302;2023-03-01T05:00:09;96020.66;;;3.74;81.16
70072;BME280;57434;42.794;23.302;2023-03-01T05:01:14;96138.94;;;4.42;81.25
70072;BME280;57434;42.794;23.302;2023-03-01T05:02:16;96129.25;;;4.34;81.33
70072;BME280;57434;42.794;23.302;2023-03-01T05:03:18;96141.38;;;4.40;81.52
70072;BME280;57434;42.794;23.302;2023-03-01T05:04:20;96132.34;;;4.36;81.33
70072;BME280;57434;42.794;23.302;2023-03-01T05:05:30;96140.50;;;4.43;80.82
70072;BME280;57434;42.794;23.302;2023-03-01T05:06:32;96139.50;;;4.21;80.87
70072;BME280;57434;42.794;23.302;2023-03-01T05:07:34;96047.16;;;3.63;81.20
70072;BME280;57434;42.794;23.302;2023-03-01T05:08:35;96147.72;;;4.41;81.02
70072;BME280;57434;42.794;23.302;2023-03-01T05:09:37;96144.78;;;4.32;81.32
70072;BME280;57434;42.794;23.302;2023-03-01T05:10:39;96126.09;;;4.20;80.86
70072;BME280;57434;42.794;23.302;2023-03-01T05:11:41;96139.13;;;4.35;81.09
70072;BME280;57434;42.794;23.302;2023-03-01T05:12:44;96138.69;;;4.37;81.05
70072;BME280;57434;42.794;23.302;2023-03-01T05:13:45;96140.25;;;4.38;81.07
70072;BME280;57434;42.794;23.302;2023-03-01T05:14:47;96129.25;;;4.34;80.81
70072;BME280;57434;42.794;23.302;2023-03-01T05:15:56;96045.03;;;3.67;80.50
70072;BME280;57434;42.794;23.302;2023-03-01T05:16:59;96147.72;;;4.41;80.24
70072;BME280;57434;42.794;23.302;2023-03-01T05:18:00;96106.66;;;4.20;79.95
70072;BME280;57434;42.794;23.302;2023-03-01T05:19:04;96147.19;;;4.46;79.88
70072;BME280;57434;42.794;23.302;2023-03-01T05:20:06;96136.25;;;4.39;79.86
70072;BME280;57434;42.794;23.302;2023-03-01T05:21:12;96141.47;;;4.37;79.31
70072;BME280;57434;42.794;23.302;2023-03-01T05:22:14;96116.56;;;4.33;79.27
70072;BME280;57434;42.794;23.302;2023-03-01T05:23:16;96150.84;;;4.43;79.64
70072;BME280;57434;42.794;23.302;2023-03-01T05:24:18;96145.81;;;4.38;79.88
70072;BME280;57434;42.794;23.302;2023-03-01T05:25:20;96140.00;;;4.32;80.18
70072;BME280;57434;42.794;23.302;2023-03-01T05:26:22;96134.50;;;4.16;79.84
70072;BME280;57434;42.794;23.302;2023-03-01T05:27:29;96150.50;;;4.41;79.95
70072;BME280;57434;42.794;23.302;2023-03-01T05:28:31;96137.22;;;4.32;79.68
70072;BME280;57434;42.794;23.302;2023-03-01T05:29:33;96134.34;;;4.36;79.72
70072;BME280;57434;42.794;23.302;2023-03-01T05:30:35;96151.38;;;4.51;79.10
70072;BME280;57434;42.794;23.302;2023-03-01T05:31:37;96147.72;;;4.41;78.69
70072;BME280;57434;42.794;23.302;2023-03-01T05:32:42;96150.50;;;4.54;78.29
70072;BME280;57434;42.794;23.302;2023-03-01T05:33:44;96147.28;;;4.55;77.36
70072;BME280;57434;42.794;23.302;2023-03-01T05:34:46;96157.13;;;4.72;76.93
70072;BME280;57434;42.794;23.302;2023-03-01T05:35:49;96139.19;;;4.61;77.20
70072;BME280;57434;42.794;23.302;2023-03-01T05:36:53;96147.44;;;4.64;76.93
70072;BME280;57434;42.794;23.302;2023-03-01T05:37:55;96120.91;;;4.47;76.57
70072;BME280;57434;42.794;23.302;2023-03-01T05:38:57;96122.94;;;4.47;76.67
70072;BME280;57434;42.794;23.302;2023-03-01T05:39:59;96124.59;;;4.44;76.94
70072;BME280;57434;42.794;23.302;2023-03-01T05:41:01;96160.09;;;4.65;77.31
70072;BME280;57434;42.794;23.302;2023-03-01T05:42:03;96139.63;;;4.47;77.45
70072;BME280;57434;42.794;23.302;2023-03-01T05:43:06;96150.88;;;4.68;77.41
70072;BME280;57434;42.794;23.302;2023-03-01T05:44:09;96158.56;;;4.64;76.99
70072;BME280;57434;42.794;23.302;2023-03-01T05:45:12;96136.69;;;4.37;76.97
70072;BME280;57434;42.794;23.302;2023-03-01T05:46:14;95973.00;;;3.34;77.17
70072;BME280;57434;42.794;23.302;2023-03-01T05:47:16;96163.72;;;4.50;77.81
70072;BME280;57434;42.794;23.302;2023-03-01T05:48:18;96134.09;;;4.30;77.88
70072;BME280;57434;42.794;23.302;2023-03-01T05:49:20;96144.41;;;4.46;77.13